sensor_id;sensor_type;location;lat;lon;timestamp;P1;durP1;ratioP1;P2;durP2;ratioP2
35114;SDS011;21292;52.416;13.046;2023-04-09T00:01:57;64.75;;;35.25;;
35114;SDS011;21292;52.416;13.046;2023-04-09T00:04:25;63.38;;;33.95;;
35114;SDS011;21292;52.416;13.046;2023-04-09T00:06:53;64.47;;;32.42;;
35114;SDS011;21292;52.416;13.046;2023-04-09T00:09:21;68.53;;;35.63;;
35114;SDS011;21292;52.416;13.046;2023-04-09T00:11:49;66.85;;;34.90;;
35114;SDS011;21292;52.416;13.046;2023-04-09T00:14:17;70.13;;;38.08;;
35114;SDS011;21292;52.416;13.046;2023-04-09T00:16:45;71.15;;;36.30;;
35114;SDS011;21292;52.416;13.046;2023-04-09T00:19:14;70.75;;;35.13;;
35114;SDS011;21292;52.416;13.046;2023-04-09T00:21:43;65.57;;;35.05;;
35114;SDS011;21292;52.416;13.046;2023-04-09T00:24:11;67.18;;;35.80;;
35114;SDS011;21292;52.416;13.046;2023-04-09T00:26:39;72.45;;;37.08;;
35114;SDS011;21292;52.416;13.046;2023-04-09T00:29:07;65.25;;;35.53;;
35114;SDS011;21292;52.416;13.046;2023-04-09T00:31:35;65.70;;;34.92;;
35114;SDS011;21292;52.416;13.046;2023-04-09T00:34:03;66.75;;;35.58;;
35114;SDS011;21292;52.416;13.046;2023-04-09T00:36:33;65.05;;;35.45;;
35114;SDS011;21292;52.416;13.046;2023-04-09T00:39:01;68.40;;;36.80;;
35114;SDS011;21292;52.416;13.046;2023-04-09T00:41:29;70.55;;;36.33;;
35114;SDS011;21292;52.416;13.046;2023-04-09T00:43:57;78.75;;;39.30;;
35114;SDS011;21292;52.416;13.046;2023-04-09T00:46:25;70.07;;;37.20;;
35114;SDS011;21292;52.416;13.046;2023-04-09T00:48:53;71.82;;;36.55;;
35114;SDS011;21292;52.416;13.046;2023-04-09T00:51:21;64.88;;;34.45;;
35114;SDS011;21292;52.416;13.046;2023-04-09T00:53:50;70.95;;;36.67;;
35114;SDS011;21292;52.416;13.046;2023-04-09T00:56:20;65.80;;;35.63;;
35114;SDS011;21292;52.416;13.046;2023-04-09T00:58:49;70.45;;;36.85;;
35114;SDS011;21292;52.416;13.046;2023-04-09T01:01:17;77.45;;;37.42;;
35114;SDS011;21292;52.416;13.046;2023-04-09T01:03:45;62.90;;;34.33;;
35114;SDS011;21292;52.416;13.046;2023-04-09T01:06:14;68.72;;;36.50;;
35114;SDS011;21292;52.416;13.046;2023-04-09T01:08:47;74.13;;;37.78;;
35114;SDS011;21292;52.416;13.046;2023-04-09T01:11:23;76.60;;;39.15;;
35114;SDS011;21292;52.416;13.046;2023-04-09T01:13:58;71.50;;;38.35;;
35114;SDS011;21292;52.416;13.046;2023-04-09T01:16:29;78.00;;;40.10;;
35114;SDS011;21292;52.416;13.046;2023-04-09T01:19:00;87.40;;;42.05;;
35114;SDS011;21292;52.416;13.046;2023-04-09T01:21:30;86.82;;;42.60;;
35114;SDS011;21292;52.416;13.046;2023-04-09T01:24:01;84.75;;;41.28;;
35114;SDS011;21292;52.416;13.046;2023-04-09T01:26:43;83.82;;;42.92;;
35114;SDS011;21292;52.416;13.046;2023-04-09T01:29:22;82.00;;;41.97;;
35114;SDS011;21292;52.416;13.046;2023-04-09T01:31:52;72.87;;;37.23;;
35114;SDS011;21292;52.416;13.046;2023-04-09T01:34:21;76.57;;;38.90;;
35114;SDS011;21292;52.416;13.046;2023-04-09T01:36:50;78.57;;;38.53;;
35114;SDS011;21292;52.416;13.046;2023-04-09T01:39:20;81.90;;;40.80;;
35114;SDS011;21292;52.416;13.046;2023-04-09T01:41:48;81.43;;;40.25;;
35114;SDS011;21292;52.416;13.046;2023-04-09T01:44:17;80.15;;;40.33;;
35114;SDS011;21292;52.416;13.046;2023-04-09T01:46:47;88.00;;;42.45;;
35114;SDS011;21292;52.416;13.046;2023-04-09T01:49:16;80.10;;;41.20;;
35114;SDS011;21292;52.416;13.046;2023-04-09T01:51:44;79.10;;;40.08;;
35114;SDS011;21292;52.416;13.046;2023-04-09T01:54:14;84.88;;;42.08;;
35114;SDS011;21292;52.416;13.046;2023-04-09T01:56:43;82.97;;;40.90;;
35114;SDS011;21292;52.416;13.046;2023-04-09T01:59:11;76.75;;;39.58;;
35114;SDS011;21292;52.416;13.046;2023-04-09T02:01:40;84.80;;;41.90;;
35114;SDS011;21292;52.416;13.046;2023-04-09T02:04:16;79.63;;;39.88;;
35114;SDS011;21292;52.416;13.046;2023-04-09T02:06:49;81.53;;;40.70;;
35114;SDS011;21292;52.416;13.046;2023-04-09T02:09:20;80.05;;;38.85;;
35114;SDS011;21292;52.416;13.046;2023-04-09T02:11:50;79.20;;;39.90;;
35114;SDS011;21292;52.416;13.046;2023-04-09T02:14:19;77.22;;;38.25;;
35114;SDS011;21292;52.416;13.046;2023-04-09T02:16:47;82.88;;;40.10;;
35114;SDS011;21292;52.416;13.046;2023-04-09T02:19:17;82.18;;;40.88;;
35114;SDS011;21292;52.416;13.046;2023-04-09T02:21:45;78.95;;;37.67;;
35114;SDS011;21292;52.416;13.046;2023-04-09T02:24:13;84.63;;;39.95;;
35114;SDS011;21292;52.416;13.046;2023-04-09T02:26:41;85.90;;;40.25;;
35114;SDS011;21292;52.416;13.046;2023-04-09T02:29:09;83.63;;;42.03;;
35114;SDS011;21292;52.416;13.046;2023-04-09T02:31:37;85.68;;;40.88;;
35114;SDS011;21292;52.416;13.046;2023-04-09T02:34:05;89.35;;;43.90;;
35114;SDS011;21292;52.416;13.046;2023-04-09T02:36:35;80.03;;;40.95;;
35114;SDS011;21292;52.416;13.046;2023-04-09T02:39:03;89.60;;;41.50;;
35114;SDS011;21292;52.416;13.046;2023-04-09T02:41:31;85.93;;;44.10;;
35114;SDS011;21292;52.416;13.046;2023-04-09T02:43:59;85.70;;;39.50;;
35114;SDS011;21292;52.416;13.046;2023-04-09T02:46:27;82.53;;;41.40;;
35114;SDS011;21292;52.416;13.046;2023-04-09T02:48:55;83.78;;;41.22;;
35114;SDS011;21292;52.416;13.046;2023-04-09T02:51:23;86.95;;;40.45;;
35114;SDS011;21292;52.416;13.046;2023-04-09T02:53:53;85.35;;;41.92;;
35114;SDS011;21292;52.416;13.046;2023-04-09T02:56:21;87.28;;;42.15;;
35114;SDS011;21292;52.416;13.046;2023-04-09T02:58:49;82.68;;;41.17;;
35114;SDS011;21292;52.416;13.046;2023-04-09T03:01:20;88.65;;;40.75;;
35114;SDS011;21292;52.416;13.046;2023-04-09T03:03:48;80.07;;;39.28;;
35114;SDS011;21292;52.416;13.046;2023-04-09T03:06:16;80.15;;;40.25;;
35114;SDS011;21292;52.416;13.046;2023-04-09T03:08:45;85.57;;;42.05;;
35114;SDS011;21292;52.416;13.046;2023-04-09T03:11:14;81.15;;;38.72;;
35114;SDS011;21292;52.416;13.046;2023-04-09T03:13:42;78.72;;;39.90;;
35114;SDS011;21292;52.416;13.046;2023-04-09T03:16:10;85.68;;;41.03;;
35114;SDS011;21292;52.416;13.046;2023-04-09T03:18:38;90.10;;;41.28;;
35114;SDS011;21292;52.416;13.046;2023-04-09T03:21:06;84.47;;;40.80;;
35114;SDS011;21292;52.416;13.046;2023-04-09T03:23:35;85.50;;;40.33;;
35114;SDS011;21292;52.416;13.046;2023-04-09T03:26:03;88.22;;;41.58;;
35114;SDS011;21292;52.416;13.046;2023-04-09T03:28:33;89.70;;;42.85;;
35114;SDS011;21292;52.416;13.046;2023-04-09T03:31:02;79.80;;;40.50;;
35114;SDS011;21292;52.416;13.046;2023-04-09T03:33:30;84.28;;;40.38;;
35114;SDS011;21292;52.416;13.046;2023-04-09T03:35:58;89.95;;;42.25;;
35114;SDS011;21292;52.416;13.046;2023-04-09T03:38:26;91.68;;;41.45;;
35114;SDS011;21292;52.416;13.046;2023-04-09T03:40:54;95.28;;;43.15;;
35114;SDS011;21292;52.416;13.046;2023-04-09T03:43:23;97.70;;;44.40;;
35114;SDS011;21292;52.416;13.046;2023-04-09T03:45:52;96.50;;;42.22;;
35114;SDS011;21292;52.416;13.046;2023-04-09T03:48:20;98.45;;;42.17;;
35114;SDS011;21292;52.416;13.046;2023-04-09T03:50:48;93.10;;;42.05;;
35114;SDS011;21292;52.416;13.046;2023-04-09T03:53:16;92.93;;;43.00;;
35114;SDS011;21292;52.416;13.046;2023-04-09T03:55:44;90.72;;;42.45;;
35114;SDS011;21292;52.416;13.046;2023-04-09T03:58:12;85.70;;;41.47;;
35114;SDS011;21292;52.416;13.046;2023-04-09T04:00:40;99.20;;;43.38;;
35114;SDS011;21292;52.416;13.046;2023-04-09T04:03:11;92.00;;;42.72;;
35114;SDS011;21292;52.416;13.046;2023-04-09T04:05:40;92.18;;;42.10;;
35114;SDS011;21292;52.416;13.046;2023-04-09T04:08:08;97.13;;;43.50;;
35114;SDS011;21292;52.416;13.046;2023-04-09T04:10:36;95.53;;;43.60;;
35114;SDS011;21292;52.416;13.046;2023-04-09T04:13:05;95.20;;;42.88;;
35114;SDS011;21292;52.416;13.046;2023-04-09T04:15:37;106.45;;;46.28;;
35114;SDS011;21292;52.416;13.046;2023-04-09T04:18:06;112.50;;;47.13;;
35114;SDS011;21292;52.416;13.046;2023-04-09T04:20:36;107.20;;;45.03;;
35114;SDS011;21292;52.416;13.046;2023-04-09T04:23:04;100.80;;;46.80;;
35114;SDS011;21292;52.416;13.046;2023-04-09T04:25:33;110.25;;;47.55;;
35114;SDS011;21292;52.416;13.046;2023-04-09T04:28:01;110.45;;;47.97;;
35114;SDS011;21292;52.416;13.046;2023-04-09T04:30:29;106.07;;;47.45;;
35114;SDS011;21292;52.416;13.046;2023-04-09T04:32:57;102.90;;;47.10;;
35114;SDS011;21292;52.416;13.046;2023-04-09T04:35:25;114.50;;;49.00;;
35114;SDS011;21292;52.416;13.046;2023-04-09T04:37:55;112.80;;;48.45;;
35114;SDS011;21292;52.416;13.046;2023-04-09T04:40:23;123.55;;;50.60;;
35114;SDS011;21292;52.416;13.046;2023-04-09T04:42:51;123.80;;;51.72;;
35114;SDS011;21292;52.416;13.046;2023-04-09T04:45:19;117.18;;;51.45;;
35114;SDS011;21292;52.416;13.046;2023-04-09T04:47:47;120.75;;;50.55;;
35114;SDS011;21292;52.416;13.046;2023-04-09T04:50:15;112.90;;;48.95;;
35114;SDS011;21292;52.416;13.046;2023-04-09T04:52:43;120.55;;;49.20;;
35114;SDS011;21292;52.416;13.046;2023-04-09T04:55:12;117.28;;;48.08;;
35114;SDS011;21292;52.416;13.046;2023-04-09T04:57:40;123.00;;;49.20;;
35114;SDS011;21292;52.416;13.046;2023-04-09T05:00:09;119.57;;;50.75;;
35114;SDS011;21292;52.416;13.046;2023-04-09T05:02:38;108.95;;;48.38;;
35114;SDS011;21292;52.416;13.046;2023-04-09T05:05:06;136.80;;;52.38;;
35114;SDS011;21292;52.416;13.046;2023-04-09T05:07:34;144.68;;;51.33;;
35114;SDS011;21292;52.416;13.046;2023-04-09T05:10:04;142.23;;;53.50;;
35114;SDS011;21292;52.416;13.046;2023-04-09T05:12:34;163.32;;;52.55;;
35114;SDS011;21292;52.416;13.046;2023-04-09T05:15:03;142.98;;;52.05;;
35114;SDS011;21292;52.416;13.046;2023-04-09T05:17:31;144.68;;;50.80;;
35114;SDS011;21292;52.416;13.046;2023-04-09T05:19:59;180.32;;;50.53;;
35114;SDS011;21292;52.416;13.046;2023-04-09T05:22:27;146.75;;;48.53;;
35114;SDS011;21292;52.416;13.046;2023-04-09T05:24:55;135.55;;;46.80;;
35114;SDS011;21292;52.416;13.046;2023-04-09T05:27:24;121.18;;;45.97;;
35114;SDS011;21292;52.416;13.046;2023-04-09T05:29:54;151.45;;;46.28;;
35114;SDS011;21292;52.416;13.046;2023-04-09T05:32:26;134.77;;;43.10;;
35114;SDS011;21292;52.416;13.046;2023-04-09T05:34:54;191.52;;;45.00;;
35114;SDS011;21292;52.416;13.046;2023-04-09T05:37:22;233.88;;;48.10;;
35114;SDS011;21292;52.416;13.046;2023-04-09T05:39:50;215.48;;;44.45;;
35114;SDS011;21292;52.416;13.046;2023-04-09T05:42:18;266.75;;;47.05;;
35114;SDS011;21292;52.416;13.046;2023-04-09T05:44:46;224.02;;;42.08;;
35114;SDS011;21292;52.416;13.046;2023-04-09T05:47:15;205.80;;;41.08;;
35114;SDS011;21292;52.416;13.046;2023-04-09T05:49:43;236.82;;;43.65;;
35114;SDS011;21292;52.416;13.046;2023-04-09T05:52:11;258.92;;;45.40;;
35114;SDS011;21292;52.416;13.046;2023-04-09T05:54:39;203.05;;;45.30;;
35114;SDS011;21292;52.416;13.046;2023-04-09T05:57:07;142.63;;;41.45;;
35114;SDS011;21292;52.416;13.046;2023-04-09T05:59:36;250.43;;;43.63;;
35114;SDS011;21292;52.416;13.046;2023-04-09T06:02:04;159.30;;;42.13;;
35114;SDS011;21292;52.416;13.046;2023-04-09T06:04:33;142.95;;;42.58;;
35114;SDS011;21292;52.416;13.046;2023-04-09T06:07:02;172.73;;;39.40;;
35114;SDS011;21292;52.416;13.046;2023-04-09T06:09:30;172.23;;;40.90;;
35114;SDS011;21292;52.416;13.046;2023-04-09T06:11:58;165.38;;;41.85;;
35114;SDS011;21292;52.416;13.046;2023-04-09T06:14:26;157.48;;;40.90;;
35114;SDS011;21292;52.416;13.046;2023-04-09T06:16:54;219.57;;;41.47;;
35114;SDS011;21292;52.416;13.046;2023-04-09T06:19:22;179.93;;;42.92;;
35114;SDS011;21292;52.416;13.046;2023-04-09T06:21:51;152.45;;;40.03;;
35114;SDS011;21292;52.416;13.046;2023-04-09T06:24:19;200.70;;;42.97;;
35114;SDS011;21292;52.416;13.046;2023-04-09T06:26:48;214.07;;;39.60;;
35114;SDS011;21292;52.416;13.046;2023-04-09T06:29:16;182.52;;;39.42;;
35114;SDS011;21292;52.416;13.046;2023-04-09T06:31:44;123.47;;;39.90;;
35114;SDS011;21292;52.416;13.046;2023-04-09T06:34:12;142.90;;;38.70;;
35114;SDS011;21292;52.416;13.046;2023-04-09T06:36:41;174.05;;;36.20;;
35114;SDS011;21292;52.416;13.046;2023-04-09T06:39:11;123.15;;;36.47;;
35114;SDS011;21292;52.416;13.046;2023-04-09T06:41:39;104.05;;;32.28;;
35114;SDS011;21292;52.416;13.046;2023-04-09T06:44:07;88.45;;;32.80;;
35114;SDS011;21292;52.416;13.046;2023-04-09T06:46:35;88.32;;;29.27;;
35114;SDS011;21292;52.416;13.046;2023-04-09T06:49:03;79.25;;;30.27;;
35114;SDS011;21292;52.416;13.046;2023-04-09T06:51:31;56.67;;;27.02;;
35114;SDS011;21292;52.416;13.046;2023-04-09T06:53:59;100.47;;;27.40;;
35114;SDS011;21292;52.416;13.046;2023-04-09T06:56:29;75.07;;;25.60;;
35114;SDS011;21292;52.416;13.046;2023-04-09T06:58:57;44.70;;;24.85;;
35114;SDS011;21292;52.416;13.046;2023-04-09T07:01:25;44.83;;;22.40;;
35114;SDS011;21292;52.416;13.046;2023-04-09T07:03:53;36.22;;;21.55;;
35114;SDS011;21292;52.416;13.046;2023-04-09T07:06:22;48.70;;;22.10;;
35114;SDS011;21292;52.416;13.046;2023-04-09T07:08:50;53.60;;;21.10;;
35114;SDS011;21292;52.416;13.046;2023-04-09T07:11:18;29.98;;;19.92;;
35114;SDS011;21292;52.416;13.046;2023-04-09T07:13:48;38.45;;;20.50;;
35114;SDS011;21292;52.416;13.046;2023-04-09T07:16:17;38.70;;;19.52;;
35114;SDS011;21292;52.416;13.046;2023-04-09T07:18:45;44.85;;;19.70;;
35114;SDS011;21292;52.416;13.046;2023-04-09T07:21:13;26.77;;;18.42;;
35114;SDS011;21292;52.416;13.046;2023-04-09T07:23:42;31.02;;;17.90;;
35114;SDS011;21292;52.416;13.046;2023-04-09T07:26:09;30.38;;;19.08;;
35114;SDS011;21292;52.416;13.046;2023-04-09T07:28:38;31.50;;;18.90;;
35114;SDS011;21292;52.416;13.046;2023-04-09T07:31:09;30.77;;;18.40;;
35114;SDS011;21292;52.416;13.046;2023-04-09T07:33:37;25.92;;;17.45;;
35114;SDS011;21292;52.416;13.046;2023-04-09T07:36:06;29.27;;;18.08;;
35114;SDS011;21292;52.416;13.046;2023-04-09T07:38:34;37.53;;;16.67;;
35114;SDS011;21292;52.416;13.046;2023-04-09T07:41:02;57.72;;;19.17;;
35114;SDS011;21292;52.416;13.046;2023-04-09T07:43:30;25.58;;;16.63;;
35114;SDS011;21292;52.416;13.046;2023-04-09T07:45:58;29.77;;;17.95;;
35114;SDS011;21292;52.416;13.046;2023-04-09T07:48:28;27.10;;;16.90;;
35114;SDS011;21292;52.416;13.046;2023-04-09T07:50:56;40.83;;;17.75;;
35114;SDS011;21292;52.416;13.046;2023-04-09T07:53:24;26.98;;;16.50;;
35114;SDS011;21292;52.416;13.046;2023-04-09T07:55:52;25.30;;;16.42;;
35114;SDS011;21292;52.416;13.046;2023-04-09T07:58:20;28.85;;;16.80;;
35114;SDS011;21292;52.416;13.046;2023-04-09T08:00:48;25.25;;;17.63;;
35114;SDS011;21292;52.416;13.046;2023-04-09T08:03:16;26.55;;;18.77;;
35114;SDS011;21292;52.416;13.046;2023-04-09T08:05:46;29.42;;;18.67;;
35114;SDS011;21292;52.416;13.046;2023-04-09T08:08:14;36.13;;;19.13;;
35114;SDS011;21292;52.416;13.046;2023-04-09T08:10:42;31.40;;;19.42;;
35114;SDS011;21292;52.416;13.046;2023-04-09T08:13:10;34.55;;;19.08;;
35114;SDS011;21292;52.416;13.046;2023-04-09T08:15:38;32.28;;;20.20;;
35114;SDS011;21292;52.416;13.046;2023-04-09T08:18:07;37.47;;;21.42;;
35114;SDS011;21292;52.416;13.046;2023-04-09T08:20:35;36.05;;;20.42;;
35114;SDS011;21292;52.416;13.046;2023-04-09T08:23:11;41.92;;;21.85;;
35114;SDS011;21292;52.416;13.046;2023-04-09T08:25:39;37.97;;;21.35;;
35114;SDS011;21292;52.416;13.046;2023-04-09T08:28:07;38.85;;;21.85;;
35114;SDS011;21292;52.416;13.046;2023-04-09T08:30:35;36.33;;;21.67;;
35114;SDS011;21292;52.416;13.046;2023-04-09T08:33:05;40.88;;;23.30;;
35114;SDS011;21292;52.416;13.046;2023-04-09T08:35:33;41.28;;;23.65;;
35114;SDS011;21292;52.416;13.046;2023-04-09T08:38:03;42.15;;;23.85;;
35114;SDS011;21292;52.416;13.046;2023-04-09T08:40:34;42.03;;;23.98;;
35114;SDS011;21292;52.416;13.046;2023-04-09T08:43:03;42.45;;;24.02;;
35114;SDS011;21292;52.416;13.046;2023-04-09T08:45:32;49.83;;;26.95;;
35114;SDS011;21292;52.416;13.046;2023-04-09T08:48:01;46.47;;;26.38;;
35114;SDS011;21292;52.416;13.046;2023-04-09T08:50:30;46.42;;;25.67;;
35114;SDS011;21292;52.416;13.046;2023-04-09T08:53:00;45.53;;;26.38;;
35114;SDS011;21292;52.416;13.046;2023-04-09T08:55:29;40.40;;;24.27;;
35114;SDS011;21292;52.416;13.046;2023-04-09T08:58:02;44.90;;;25.20;;
35114;SDS011;21292;52.416;13.046;2023-04-09T09:00:31;38.27;;;24.03;;
35114;SDS011;21292;52.416;13.046;2023-04-09T09:02:59;38.92;;;24.52;;
35114;SDS011;21292;52.416;13.046;2023-04-09T09:05:34;39.63;;;24.33;;
35114;SDS011;21292;52.416;13.046;2023-04-09T09:08:03;39.42;;;23.40;;
35114;SDS011;21292;52.416;13.046;2023-04-09T09:10:38;43.78;;;26.90;;
35114;SDS011;21292;52.416;13.046;2023-04-09T09:13:16;41.05;;;25.85;;
35114;SDS011;21292;52.416;13.046;2023-04-09T09:15:45;40.75;;;25.67;;
35114;SDS011;21292;52.416;13.046;2023-04-09T09:18:16;41.63;;;25.13;;
35114;SDS011;21292;52.416;13.046;2023-04-09T09:20:44;45.50;;;27.00;;
35114;SDS011;21292;52.416;13.046;2023-04-09T09:23:12;39.90;;;25.60;;
35114;SDS011;21292;52.416;13.046;2023-04-09T09:25:42;41.50;;;25.55;;
35114;SDS011;21292;52.416;13.046;2023-04-09T09:28:10;38.30;;;24.88;;
35114;SDS011;21292;52.416;13.046;2023-04-09T09:30:40;37.75;;;24.60;;
35114;SDS011;21292;52.416;13.046;2023-04-09T09:33:09;39.60;;;24.63;;
35114;SDS011;21292;52.416;13.046;2023-04-09T09:35:47;42.53;;;26.98;;
35114;SDS011;21292;52.416;13.046;2023-04-09T09:38:16;44.83;;;28.13;;
35114;SDS011;21292;52.416;13.046;2023-04-09T09:40:44;41.28;;;27.05;;
35114;SDS011;21292;52.416;13.046;2023-04-09T09:43:12;47.97;;;28.77;;
35114;SDS011;21292;52.416;13.046;2023-04-09T09:45:42;43.75;;;27.90;;
35114;SDS011;21292;52.416;13.046;2023-04-09T09:48:11;44.65;;;28.33;;
35114;SDS011;21292;52.416;13.046;2023-04-09T09:50:40;44.80;;;29.20;;
35114;SDS011;21292;52.416;13.046;2023-04-09T09:53:10;44.90;;;29.52;;
35114;SDS011;21292;52.416;13.046;2023-04-09T09:55:38;46.33;;;30.02;;
35114;SDS011;21292;52.416;13.046;2023-04-09T09:58:11;44.35;;;30.42;;
35114;SDS011;21292;52.416;13.046;2023-04-09T10:00:45;46.47;;;30.63;;
35114;SDS011;21292;52.416;13.046;2023-04-09T10:03:16;45.78;;;30.00;;
35114;SDS011;21292;52.416;13.046;2023-04-09T10:05:48;45.22;;;28.98;;
35114;SDS011;21292;52.416;13.046;2023-04-09T10:08:19;46.57;;;31.73;;
35114;SDS011;21292;52.416;13.046;2023-04-09T10:10:48;45.60;;;29.92;;
35114;SDS011;21292;52.416;13.046;2023-04-09T10:13:18;48.53;;;31.60;;
35114;SDS011;21292;52.416;13.046;2023-04-09T10:15:49;51.75;;;33.53;;
35114;SDS011;21292;52.416;13.046;2023-04-09T10:18:18;75.75;;;45.08;;
35114;SDS011;21292;52.416;13.046;2023-04-09T10:20:48;56.88;;;34.72;;
35114;SDS011;21292;52.416;13.046;2023-04-09T10:23:21;51.72;;;34.08;;
35114;SDS011;21292;52.416;13.046;2023-04-09T10:25:54;49.78;;;33.45;;
35114;SDS011;21292;52.416;13.046;2023-04-09T10:28:22;50.25;;;32.72;;
35114;SDS011;21292;52.416;13.046;2023-04-09T10:30:52;48.03;;;31.98;;
35114;SDS011;21292;52.416;13.046;2023-04-09T10:33:21;49.70;;;34.03;;
35114;SDS011;21292;52.416;13.046;2023-04-09T10:35:52;51.67;;;32.80;;
35114;SDS011;21292;52.416;13.046;2023-04-09T10:38:33;47.85;;;33.80;;
35114;SDS011;21292;52.416;13.046;2023-04-09T10:41:06;52.40;;;34.85;;
35114;SDS011;21292;52.416;13.046;2023-04-09T10:43:35;49.90;;;32.95;;
35114;SDS011;21292;52.416;13.046;2023-04-09T10:46:06;49.35;;;34.33;;
35114;SDS011;21292;52.416;13.046;2023-04-09T10:48:35;49.05;;;34.13;;
35114;SDS011;21292;52.416;13.046;2023-04-09T10:51:03;59.05;;;36.55;;
35114;SDS011;21292;52.416;13.046;2023-04-09T10:53:33;55.65;;;35.60;;
35114;SDS011;21292;52.416;13.046;2023-04-09T10:56:04;52.58;;;34.65;;
35114;SDS011;21292;52.416;13.046;2023-04-09T10:58:41;51.30;;;34.40;;
35114;SDS011;21292;52.416;13.046;2023-04-09T11:01:11;50.53;;;33.38;;
35114;SDS011;21292;52.416;13.046;2023-04-09T11:04:02;43.35;;;30.77;;
35114;SDS011;21292;52.416;13.046;2023-04-09T11:06:37;48.45;;;32.00;;
35114;SDS011;21292;52.416;13.046;2023-04-09T11:09:07;46.88;;;32.08;;
35114;SDS011;21292;52.416;13.046;2023-04-09T11:11:35;47.63;;;33.60;;
35114;SDS011;21292;52.416;13.046;2023-04-09T11:14:03;50.15;;;34.30;;
35114;SDS011;21292;52.416;13.046;2023-04-09T11:16:32;55.53;;;36.17;;
35114;SDS011;21292;52.416;13.046;2023-04-09T11:19:00;52.70;;;35.53;;
35114;SDS011;21292;52.416;13.046;2023-04-09T11:21:29;51.75;;;35.08;;
35114;SDS011;21292;52.416;13.046;2023-04-09T11:23:57;48.63;;;32.85;;
35114;SDS011;21292;52.416;13.046;2023-04-09T11:26:33;68.47;;;42.28;;
35114;SDS011;21292;52.416;13.046;2023-04-09T11:29:03;46.35;;;31.10;;
35114;SDS011;21292;52.416;13.046;2023-04-09T11:31:34;44.85;;;30.42;;
35114;SDS011;21292;52.416;13.046;2023-04-09T11:34:02;44.10;;;30.05;;
35114;SDS011;21292;52.416;13.046;2023-04-09T11:36:31;46.63;;;31.63;;
35114;SDS011;21292;52.416;13.046;2023-04-09T11:39:01;45.95;;;30.88;;
35114;SDS011;21292;52.416;13.046;2023-04-09T11:41:32;43.97;;;31.10;;
35114;SDS011;21292;52.416;13.046;2023-04-09T11:44:01;48.70;;;32.65;;
35114;SDS011;21292;52.416;13.046;2023-04-09T11:46:30;47.75;;;32.60;;
35114;SDS011;21292;52.416;13.046;2023-04-09T11:49:00;46.15;;;31.55;;
35114;SDS011;21292;52.416;13.046;2023-04-09T11:51:29;44.47;;;31.52;;
35114;SDS011;21292;52.416;13.046;2023-04-09T11:54:00;44.92;;;31.52;;
35114;SDS011;21292;52.416;13.046;2023-04-09T11:56:28;41.75;;;29.67;;
35114;SDS011;21292;52.416;13.046;2023-04-09T11:58:56;43.63;;;29.38;;
35114;SDS011;21292;52.416;13.046;2023-04-09T12:01:29;39.88;;;27.13;;
35114;SDS011;21292;52.416;13.046;2023-04-09T12:03:58;43.88;;;28.73;;
35114;SDS011;21292;52.416;13.046;2023-04-09T12:06:28;43.15;;;28.50;;
35114;SDS011;21292;52.416;13.046;2023-04-09T12:08:57;40.65;;;27.23;;
35114;SDS011;21292;52.416;13.046;2023-04-09T12:11:27;42.22;;;28.42;;
35114;SDS011;21292;52.416;13.046;2023-04-09T12:13:58;39.00;;;27.17;;
35114;SDS011;21292;52.416;13.046;2023-04-09T12:16:28;40.78;;;26.38;;
35114;SDS011;21292;52.416;13.046;2023-04-09T12:18:59;39.50;;;27.33;;
35114;SDS011;21292;52.416;13.046;2023-04-09T12:24:15;36.05;;;25.27;;
35114;SDS011;21292;52.416;13.046;2023-04-09T12:26:44;33.53;;;22.45;;
35114;SDS011;21292;52.416;13.046;2023-04-09T12:29:13;34.95;;;24.08;;
35114;SDS011;21292;52.416;13.046;2023-04-09T12:31:42;35.20;;;23.15;;
35114;SDS011;21292;52.416;13.046;2023-04-09T12:34:11;32.33;;;20.98;;
35114;SDS011;21292;52.416;13.046;2023-04-09T12:36:39;31.70;;;21.33;;
35114;SDS011;21292;52.416;13.046;2023-04-09T12:39:09;40.03;;;24.35;;
35114;SDS011;21292;52.416;13.046;2023-04-09T12:41:37;36.80;;;23.15;;
35114;SDS011;21292;52.416;13.046;2023-04-09T12:44:05;42.55;;;25.83;;
35114;SDS011;21292;52.416;13.046;2023-04-09T12:46:33;36.53;;;23.05;;
35114;SDS011;21292;52.416;13.046;2023-04-09T12:49:02;31.23;;;19.92;;
35114;SDS011;21292;52.416;13.046;2023-04-09T12:51:30;28.15;;;19.30;;
35114;SDS011;21292;52.416;13.046;2023-04-09T12:53:58;29.73;;;18.75;;
35114;SDS011;21292;52.416;13.046;2023-04-09T12:56:27;28.83;;;18.77;;
35114;SDS011;21292;52.416;13.046;2023-04-09T12:58:56;30.38;;;19.35;;
35114;SDS011;21292;52.416;13.046;2023-04-09T13:01:24;32.78;;;21.50;;
35114;SDS011;21292;52.416;13.046;2023-04-09T13:03:52;31.25;;;21.27;;
35114;SDS011;21292;52.416;13.046;2023-04-09T13:06:21;34.35;;;21.55;;
35114;SDS011;21292;52.416;13.046;2023-04-09T13:08:49;31.75;;;20.55;;
35114;SDS011;21292;52.416;13.046;2023-04-09T13:11:17;28.58;;;19.48;;
35114;SDS011;21292;52.416;13.046;2023-04-09T13:13:46;31.15;;;20.13;;
35114;SDS011;21292;52.416;13.046;2023-04-09T13:16:14;30.88;;;18.50;;
35114;SDS011;21292;52.416;13.046;2023-04-09T13:18:43;28.55;;;18.30;;
35114;SDS011;21292;52.416;13.046;2023-04-09T13:21:11;30.90;;;19.45;;
35114;SDS011;21292;52.416;13.046;2023-04-09T13:23:40;37.28;;;21.77;;
35114;SDS011;21292;52.416;13.046;2023-04-09T13:26:08;23.83;;;15.77;;
35114;SDS011;21292;52.416;13.046;2023-04-09T13:28:36;27.40;;;17.33;;
35114;SDS011;21292;52.416;13.046;2023-04-09T13:31:06;26.10;;;15.80;;
35114;SDS011;21292;52.416;13.046;2023-04-09T13:33:34;27.30;;;17.85;;
35114;SDS011;21292;52.416;13.046;2023-04-09T13:36:02;28.17;;;17.63;;
35114;SDS011;21292;52.416;13.046;2023-04-09T13:38:31;26.63;;;16.88;;
35114;SDS011;21292;52.416;13.046;2023-04-09T13:40:59;29.63;;;17.85;;
35114;SDS011;21292;52.416;13.046;2023-04-09T13:43:27;24.55;;;16.65;;
35114;SDS011;21292;52.416;13.046;2023-04-09T13:45:55;26.92;;;17.38;;
35114;SDS011;21292;52.416;13.046;2023-04-09T13:48:25;27.33;;;17.77;;
35114;SDS011;21292;52.416;13.046;2023-04-09T13:50:53;31.30;;;18.40;;
35114;SDS011;21292;52.416;13.046;2023-04-09T13:53:22;28.85;;;17.58;;
35114;SDS011;21292;52.416;13.046;2023-04-09T13:55:50;27.60;;;17.70;;
35114;SDS011;21292;52.416;13.046;2023-04-09T13:58:19;28.42;;;17.80;;
35114;SDS011;21292;52.416;13.046;2023-04-09T14:00:48;27.25;;;17.27;;
35114;SDS011;21292;52.416;13.046;2023-04-09T14:03:16;24.58;;;16.45;;
35114;SDS011;21292;52.416;13.046;2023-04-09T14:05:46;27.23;;;16.10;;
35114;SDS011;21292;52.416;13.046;2023-04-09T14:08:14;23.73;;;15.57;;
35114;SDS011;21292;52.416;13.046;2023-04-09T14:10:43;29.42;;;16.52;;
35114;SDS011;21292;52.416;13.046;2023-04-09T14:13:11;29.83;;;17.85;;
35114;SDS011;21292;52.416;13.046;2023-04-09T14:15:39;25.77;;;16.80;;
35114;SDS011;21292;52.416;13.046;2023-04-09T14:18:07;29.05;;;16.63;;
35114;SDS011;21292;52.416;13.046;2023-04-09T14:20:35;29.05;;;18.10;;